Time;durP1;ratioP1;P1;durP2;ratioP2;P2;SDS_P1;SDS_P2;PMS_P1;PMS_P2;Temp;Humidity;BMP_temperature;BMP_pressure;BME280_temperature;BME280_humidity;BME280_pressure;Samples;Min_cycle;Max_cycle;Signal;HPM_P1;HPM_P2
2022/01/18 00:00:03;;;;;;;24.48;7.60;;;;;;;4.99;100.00;102874.47;836957;23;800;-54
2022/01/18 00:00:28;;;;;;;24.33;7.82;;;;;;;4.98;100.00;102872.66;835073;23;654;-52
2022/01/18 00:00:49;;;;;;;22.35;7.43;;;;;;;4.96;100.00;102877.78;836613;23;934;-53
2022/01/18 00:01:09;;;;;;;22.58;7.50;;;;;;;4.93;100.00;102875.91;836609;23;4321;-54
2022/01/18 00:01:30;;;;;;;24.17;7.27;;;;;;;4.94;100.00;102874.19;836391;23;956;-52
2022/01/18 00:01:52;;;;;;;20.95;7.18;;;;;;;4.94;100.00;102874.19;836958;23;808;-53
2022/01/18 00:02:12;;;;;;;24.45;7.60;;;;;;;4.93;100.00;102870.72;837060;23;801;-55
2022/01/18 00:02:32;;;;;;;20.97;7.03;;;;;;;4.94;100.00;102871.59;836843;23;753;-53
2022/01/18 00:02:53;;;;;;;22.80;7.13;;;;;;;4.94;100.00;102875.09;838561;23;781;-53
2022/01/18 00:03:14;;;;;;;21.33;7.43;;;;;;;4.95;100.00;102873.38;835392;23;825;-54
2022/01/18 00:03:34;;;;;;;21.75;7.47;;;;;;;4.95;100.00;102878.56;835745;23;824;-56
2022/01/18 00:03:57;;;;;;;20.50;7.25;;;;;;;4.95;100.00;102873.38;837416;23;865;-52
2022/01/18 00:04:17;;;;;;;22.45;7.45;;;;;;;4.96;100.00;102875.19;836506;23;4722;-54
2022/01/18 00:04:38;;;;;;;23.05;8.43;;;;;;;4.96;100.00;102870.00;835585;23;760;-52
2022/01/18 00:04:58;;;;;;;26.65;8.48;;;;;;;4.97;100.00;102869.19;838126;23;793;-55
2022/01/18 00:05:19;;;;;;;25.73;8.27;;;;;;;4.97;100.00;102876.97;837501;23;887;-55
2022/01/18 00:05:43;;;;;;;26.00;8.90;;;;;;;4.97;100.00;102879.56;836895;23;705;-52
2022/01/18 00:06:04;;;;;;;27.75;9.48;;;;;;;4.97;100.00;102870.88;836900;23;1296;-52
2022/01/18 00:06:25;;;;;;;29.67;9.10;;;;;;;4.97;100.00;102876.97;837561;23;868;-55
2022/01/18 00:06:49;;;;;;;28.77;9.03;;;;;;;4.97;100.00;102876.97;837550;23;832;-51
2022/01/18 00:07:09;;;;;;;25.95;9.00;;;;;;;4.97;100.00;102876.06;832992;23;4373;-51
2022/01/18 00:07:30;;;;;;;26.97;9.23;;;;;;;4.97;100.00;102882.16;833574;23;690;-54
2022/01/18 00:07:50;;;;;;;31.70;10.45;;;;;;;4.98;100.00;102880.44;834243;23;952;-54
2022/01/18 00:08:11;;;;;;;45.20;15.30;;;;;;;4.98;100.00;102883.91;827865;23;956;-55
2022/01/18 00:08:32;;;;;;;51.95;18.30;;;;;;;4.98;100.00;102881.31;828622;23;824;-53
2022/01/18 00:08:53;;;;;;;53.73;18.63;;;;;;;4.98;100.00;102876.13;830060;23;808;-55
2022/01/18 00:09:14;;;;;;;53.83;18.77;;;;;;;4.98;100.00;102878.72;833972;23;802;-52
2022/01/18 00:09:38;;;;;;;61.53;21.93;;;;;;;4.99;100.00;102880.53;832920;23;765;-52
2022/01/18 00:09:58;;;;;;;72.63;26.50;;;;;;;4.99;100.00;102888.28;833636;23;851;-54
2022/01/18 00:10:21;;;;;;;67.82;26.23;;;;;;;5.00;100.00;102882.31;835706;23;4253;-54
2022/01/18 00:10:43;;;;;;;82.97;31.98;;;;;;;5.00;100.00;102881.41;838399;23;891;-53
2022/01/18 00:11:03;;;;;;;81.80;29.70;;;;;;;5.00;100.00;102882.31;837789;23;866;-52
2022/01/18 00:11:27;;;;;;;73.57;25.70;;;;;;;5.00;100.00;102881.41;831049;23;1614;-54
2022/01/18 00:11:59;;;;;;;63.92;22.40;;;;;;;5.01;100.00;102880.59;832727;23;844;-51
2022/01/18 00:13:43;;;;;;;46.72;16.58;;;;;;;4.98;100.00;102889.09;832946;23;4293;-51
2022/01/18 00:14:12;;;;;;;39.67;15.02;;;;;;;4.98;100.00;102889.09;831757;23;1155;-51
2022/01/18 00:14:42;;;;;;;40.60;13.66;;;;;;;4.98;100.00;102889.09;831125;23;932;-52
2022/01/18 00:15:57;;;;;;;53.90;18.25;;;;;;;4.95;100.00;102884.63;832088;23;931;-55
2022/01/18 00:16:29;;;;;;;46.38;17.52;;;;;;;4.94;100.00;102888.06;836222;23;4310;-52
2022/01/18 00:17:16;;;;;;;49.95;19.58;;;;;;;4.95;100.00;102888.94;837546;23;1938;-55
2022/01/18 00:17:42;;;;;;;42.35;17.40;;;;;;;4.95;100.00;102884.63;834867;23;1132;-52
2022/01/18 00:18:24;;;;;;;28.55;11.30;;;;;;;4.96;100.00;102898.50;836647;23;674;-56
2022/01/18 00:18:49;;;;;;;29.87;9.83;;;;;;;4.96;100.00;102895.91;836520;23;726;-51
2022/01/18 00:19:11;;;;;;;27.65;8.15;;;;;;;4.97;100.00;102886.44;836967;23;4240;-54
2022/01/18 00:19:34;;;;;;;25.45;7.90;;;;;;;4.99;100.00;102890.88;835792;23;868;-52
2022/01/18 00:19:56;;;;;;;29.75;9.65;;;;;;;4.97;100.00;102894.19;837439;23;781;-51
2022/01/18 00:20:22;;;;;;;23.63;8.70;;;;;;;4.97;100.00;102889.94;836949;23;784;-52
2022/01/18 00:21:34;;;;;;;27.25;8.77;;;;;;;4.98;100.00;102888.22;836293;23;914;-53
2022/01/18 00:22:27;;;;;;;24.17;9.45;;;;;;;4.97;100.00;102891.59;834087;23;4221;-52
2022/01/18 00:22:48;;;;;;;23.48;9.27;;;;;;;4.95;100.00;102887.22;836178;23;860;-52
2022/01/18 00:23:10;;;;;;;25.58;9.02;;;;;;;4.96;100.00;102893.31;838607;23;939;-56
2022/01/18 00:23:30;;;;;;;25.10;7.65;;;;;;;4.98;100.00;102896.00;837088;23;1149;-55
2022/01/18 00:23:54;;;;;;;25.88;7.72;;;;;;;4.97;100.00;102892.53;836312;23;763;-54
2022/01/18 00:24:15;;;;;;;25.83;8.00;;;;;;;4.97;100.00;102897.72;836749;23;951;-52
2022/01/18 00:24:36;;;;;;;25.70;8.20;;;;;;;4.96;100.00;102890.72;835740;23;828;-51
2022/01/18 00:24:58;;;;;;;22.20;7.80;;;;;;;4.97;100.00;102895.13;827047;23;1381;-56
2022/01/18 00:25:19;;;;;;;25.60;7.68;;;;;;;4.97;100.00;102895.13;828573;23;4306;-53
2022/01/18 00:25:43;;;;;;;22.77;7.38;;;;;;;4.97;100.00;102897.72;833179;23;749;-52
2022/01/18 00:26:06;;;;;;;26.00;7.55;;;;;;;4.98;100.00;102896.88;832574;23;971;-55
2022/01/18 00:26:29;;;;;;;23.25;7.15;;;;;;;4.98;100.00;102890.81;833346;23;1022;-55
2022/01/18 00:26:50;;;;;;;22.17;7.57;;;;;;;4.98;100.00;102896.88;835761;23;990;-52
2022/01/18 00:27:14;;;;;;;26.48;8.35;;;;;;;4.98;100.00;102896.00;827822;23;913;-53
2022/01/18 00:27:34;;;;;;;24.00;7.57;;;;;;;4.97;100.00;102896.78;827860;23;904;-55
2022/01/18 00:27:55;;;;;;;23.87;8.17;;;;;;;4.96;100.00;102890.72;829626;23;802;-51
2022/01/18 00:28:16;;;;;;;25.02;8.30;;;;;;;4.95;100.00;102897.59;827583;23;4200;-56
2022/01/18 00:28:38;;;;;;;27.60;8.38;;;;;;;4.95;100.00;102899.31;829602;23;892;-53
2022/01/18 00:29:05;;;;;;;24.98;8.73;;;;;;;4.92;100.00;102894.84;832258;23;1019;-53
2022/01/18 00:29:28;;;;;;;27.63;8.82;;;;;;;4.92;100.00;102889.66;837132;23;940;-53
2022/01/18 00:30:05;;;;;;;24.38;8.18;;;;;;;4.91;100.00;102899.94;837763;23;871;-53
2022/01/18 00:32:23;;;;;;;27.17;8.75;;;;;;;4.88;100.00;102897.19;836040;23;840;-53
2022/01/18 00:33:05;;;;;;;18.70;7.65;;;;;;;4.88;100.00;102892.00;832250;23;1147;-53
2022/01/18 00:34:14;;;;;;;23.92;8.80;;;;;;;4.87;100.00;102904.06;833233;23;884;-52
2022/01/18 00:34:37;;;;;;;19.20;7.65;;;;;;;4.87;100.00;102906.66;833054;23;4889;-52
2022/01/18 00:34:57;;;;;;;18.38;7.43;;;;;;;4.88;100.00;102899.78;838779;23;839;-53
2022/01/18 00:35:17;;;;;;;20.23;7.57;;;;;;;4.88;100.00;102903.25;837457;23;989;-52
2022/01/18 00:35:41;;;;;;;23.27;7.95;;;;;;;4.88;100.00;102902.38;836123;23;876;-54
2022/01/18 00:36:03;;;;;;;22.08;7.82;;;;;;;4.89;100.00;102905.06;836594;23;847;-53
2022/01/18 00:36:29;;;;;;;22.48;7.88;;;;;;;4.88;100.00;102903.25;831629;23;884;-51
2022/01/18 00:37:37;;;;;;;24.00;8.30;;;;;;;4.86;100.00;102902.31;831842;23;5289;-53
2022/01/18 00:37:58;;;;;;;24.67;8.45;;;;;;;4.85;100.00;102908.28;829485;23;956;-51
2022/01/18 00:38:43;;;;;;;24.70;8.05;;;;;;;4.84;100.00;102906.50;831094;23;904;-53
2022/01/18 00:39:11;;;;;;;21.35;8.07;;;;;;;4.85;100.00;102907.41;833424;23;943;-51
2022/01/18 00:39:31;;;;;;;18.13;7.20;;;;;;;4.85;100.00;102908.28;831332;23;914;-51
2022/01/18 00:39:53;;;;;;;20.40;7.50;;;;;;;4.85;100.00;102910.00;830657;23;798;-53
2022/01/18 00:40:13;;;;;;;19.33;7.15;;;;;;;4.85;100.00;102912.59;832492;23;4264;-52
2022/01/18 00:40:33;;;;;;;22.40;7.77;;;;;;;4.84;100.00;102908.19;833173;23;847;-51
2022/01/18 00:40:54;;;;;;;20.02;7.80;;;;;;;4.83;100.00;102912.50;833937;23;883;-53
2022/01/18 00:41:17;;;;;;;22.95;8.02;;;;;;;4.83;100.00;102909.00;833309;23;904;-52
2022/01/18 00:41:40;;;;;;;23.73;8.20;;;;;;;4.82;100.00;102905.53;832036;23;797;-53
2022/01/18 00:42:00;;;;;;;24.95;8.32;;;;;;;4.82;100.00;102910.72;836631;23;749;-54
2022/01/18 00:42:20;;;;;;;20.58;7.55;;;;;;;4.85;100.00;102917.78;837192;23;864;-51
2022/01/18 00:42:41;;;;;;;18.53;7.20;;;;;;;4.84;100.00;102911.69;837362;23;710;-59
2022/01/18 00:43:01;;;;;;;20.95;7.35;;;;;;;4.85;100.00;102907.41;836827;23;698;-52
2022/01/18 00:43:22;;;;;;;23.23;7.80;;;;;;;4.85;100.00;102912.59;833097;23;4286;-53
2022/01/18 00:43:43;;;;;;;22.67;8.02;;;;;;;4.84;100.00;102915.97;835851;23;896;-55
2022/01/18 00:44:05;;;;;;;20.88;7.85;;;;;;;4.84;100.00;102916.84;836382;23;801;-55
2022/01/18 00:44:26;;;;;;;22.13;7.88;;;;;;;4.83;100.00;102919.38;835685;23;809;-56
2022/01/18 00:44:47;;;;;;;20.35;7.65;;;;;;;4.83;100.00;102925.47;836599;23;840;-54
2022/01/18 00:45:07;;;;;;;23.70;7.50;;;;;;;4.80;100.00;102920.09;836762;23;816;-52
2022/01/18 00:45:28;;;;;;;23.00;7.88;;;;;;;4.81;100.00;102924.47;832349;23;903;-56
2022/01/18 00:45:51;;;;;;;20.40;7.77;;;;;;;4.82;100.00;102917.56;831992;23;868;-54
2022/01/18 00:46:12;;;;;;;20.08;7.80;;;;;;;4.83;100.00;102916.78;831621;23;5194;-51
2022/01/18 00:46:33;;;;;;;19.80;7.70;;;;;;;4.84;100.00;102915.97;832372;23;913;-53
2022/01/18 00:46:53;;;;;;;27.73;8.37;;;;;;;4.85;100.00;102921.25;832653;23;769;-53
2022/01/18 00:47:13;;;;;;;23.65;8.23;;;;;;;4.85;100.00;102920.38;834766;23;813;-52
2022/01/18 00:47:34;;;;;;;21.87;7.93;;;;;;;4.84;100.00;102919.44;836090;23;899;-53
2022/01/18 00:47:54;;;;;;;23.58;8.02;;;;;;;4.85;100.00;102922.94;834292;23;959;-53
2022/01/18 00:48:14;;;;;;;19.93;8.07;;;;;;;4.85;100.00;102917.78;835952;23;762;-52
2022/01/18 00:48:36;;;;;;;24.10;8.60;;;;;;;4.85;100.00;102922.94;835100;23;773;-56
2022/01/18 00:49:00;;;;;;;21.45;7.90;;;;;;;4.86;100.00;102922.13;836987;23;883;-51
2022/01/18 00:49:20;;;;;;;20.45;7.60;;;;;;;4.85;100.00;102917.78;834855;23;4410;-54
2022/01/18 00:49:45;;;;;;;18.50;7.37;;;;;;;4.84;100.00;102915.97;837661;23;884;-52
2022/01/18 00:50:05;;;;;;;19.17;7.40;;;;;;;4.85;100.00;102918.66;836888;23;901;-54
2022/01/18 00:50:30;;;;;;;21.15;7.80;;;;;;;4.86;100.00;102922.13;835904;23;1263;-53
2022/01/18 00:50:52;;;;;;;23.20;8.38;;;;;;;4.86;100.00;102914.34;836990;23;911;-53
2022/01/18 00:51:14;;;;;;;24.02;8.45;;;;;;;4.86;100.00;102914.34;836985;23;801;-54
2022/01/18 00:51:37;;;;;;;22.40;7.90;;;;;;;4.87;100.00;102917.03;835656;23;808;-52
2022/01/18 00:52:03;;;;;;;22.10;8.50;;;;;;;4.85;100.00;102918.66;837516;23;979;-51
2022/01/18 00:52:24;;;;;;;24.50;8.73;;;;;;;4.85;100.00;102912.59;834936;23;4274;-55
2022/01/18 00:52:50;;;;;;;26.10;8.10;;;;;;;4.84;100.00;102910.78;837694;23;884;-52
2022/01/18 00:53:14;;;;;;;24.23;8.02;;;;;;;4.82;100.00;102917.56;833084;23;1019;-53
2022/01/18 00:53:36;;;;;;;26.00;8.75;;;;;;;4.81;100.00;102921.88;833153;23;947;-51
2022/01/18 00:53:58;;;;;;;24.35;8.43;;;;;;;4.80;100.00;102920.09;832415;23;966;-53
2022/01/18 00:54:26;;;;;;;28.58;8.77;;;;;;;4.81;100.00;102923.59;832747;23;951;-51
2022/01/18 00:54:47;;;;;;;33.53;9.20;;;;;;;4.80;100.00;102920.09;832374;23;1007;-51
2022/01/18 00:55:08;;;;;;;31.05;8.38;;;;;;;4.81;100.00;102923.59;834482;23;4299;-51
2022/01/18 00:55:34;;;;;;;21.70;7.80;;;;;;;4.80;100.00;102927.88;836346;23;943;-51
2022/01/18 00:56:15;;;;;;;23.20;7.60;;;;;;;4.78;100.00;102932.97;837922;23;943;-49
2022/01/18 00:56:39;;;;;;;29.27;8.52;;;;;;;4.77;100.00;102926.00;834432;23;1405;-52
2022/01/18 00:56:59;;;;;;;31.85;8.93;;;;;;;4.78;100.00;102927.78;837342;23;1956;-51
2022/01/18 00:57:20;;;;;;;24.52;8.73;;;;;;;4.78;100.00;102924.31;836759;23;978;-51
2022/01/18 00:57:40;;;;;;;21.07;8.20;;;;;;;4.80;100.00;102926.97;836558;23;868;-51
2022/01/18 00:58:00;;;;;;;20.80;8.50;;;;;;;4.80;100.00;102926.97;836431;23;812;-53
2022/01/18 00:58:21;;;;;;;24.93;8.70;;;;;;;4.78;100.00;102920.00;834940;23;4294;-51
2022/01/18 00:58:43;;;;;;;25.98;8.93;;;;;;;4.77;100.00;102919.94;835901;23;915;-51
2022/01/18 00:59:04;;;;;;;26.90;8.73;;;;;;;4.77;100.00;102922.53;838127;23;880;-54
2022/01/18 00:59:24;;;;;;;26.52;9.63;;;;;;;4.77;100.00;102920.81;837070;23;810;-52
2022/01/18 00:59:47;;;;;;;26.97;9.80;;;;;;;4.77;100.00;102920.81;837400;23;860;-54
2022/01/18 01:00:07;;;;;;;23.42;9.27;;;;;;;4.77;100.00;102920.81;837415;23;946;-52
2022/01/18 01:00:28;;;;;;;19.58;8.30;;;;;;;4.78;100.00;102920.00;837219;23;817;-52
2022/01/18 01:00:51;;;;;;;16.70;7.67;;;;;;;4.77;100.00;102920.81;838090;23;1013;-51
2022/01/18 01:01:11;;;;;;;20.00;8.52;;;;;;;4.76;100.00;102919.03;836800;23;4408;-51
2022/01/18 01:01:34;;;;;;;25.67;9.15;;;;;;;4.77;100.00;102919.94;836973;23;777;-52
2022/01/18 01:01:54;;;;;;;22.98;8.52;;;;;;;4.75;100.00;102912.06;837489;23;978;-51
2022/01/18 01:02:15;;;;;;;21.58;8.15;;;;;;;4.75;100.00;102917.25;836816;23;726;-52
2022/01/18 01:02:35;;;;;;;21.48;8.00;;;;;;;4.76;100.00;102919.03;835950;23;911;-51
2022/01/18 01:02:56;;;;;;;18.43;7.50;;;;;;;4.77;100.00;102918.22;836672;23;726;-51
2022/01/18 01:03:16;;;;;;;18.85;7.25;;;;;;;4.77;100.00;102918.22;837007;23;939;-51
2022/01/18 01:03:38;;;;;;;22.13;7.80;;;;;;;4.78;100.00;102925.19;836281;23;737;-53
2022/01/18 01:04:02;;;;;;;25.48;8.38;;;;;;;4.77;100.00;102913.03;834972;23;1149;-52
2022/01/18 01:04:26;;;;;;;24.23;8.70;;;;;;;4.75;100.00;102917.25;834968;23;4470;-55
2022/01/18 01:04:48;;;;;;;21.42;8.20;;;;;;;4.76;100.00;102912.94;837644;23;760;-52
2022/01/18 01:05:09;;;;;;;21.08;8.20;;;;;;;4.76;100.00;102923.31;837305;23;892;-51
2022/01/18 01:05:30;;;;;;;22.02;8.73;;;;;;;4.76;100.00;102916.47;834996;23;758;-52
2022/01/18 01:05:50;;;;;;;20.00;8.25;;;;;;;4.76;100.00;102918.13;836716;23;883;-53
2022/01/18 01:06:11;;;;;;;19.03;8.07;;;;;;;4.78;100.00;102921.72;837037;23;648;-51
2022/01/18 01:06:32;;;;;;;23.88;8.73;;;;;;;4.76;100.00;102921.63;836935;23;995;-53
2022/01/18 01:06:53;;;;;;;24.30;8.68;;;;;;;4.77;100.00;102915.63;837289;23;916;-53
2022/01/18 01:07:19;;;;;;;23.70;8.97;;;;;;;4.76;100.00;102924.22;836635;23;4298;-51
2022/01/18 01:07:40;;;;;;;26.73;9.20;;;;;;;4.77;100.00;102920.81;836148;23;888;-52
2022/01/18 01:08:01;;;;;;;21.77;8.50;;;;;;;4.78;100.00;102919.13;836523;23;948;-52
2022/01/18 01:08:21;;;;;;;18.85;8.05;;;;;;;4.78;100.00;102922.59;836276;23;749;-52
2022/01/18 01:08:42;;;;;;;20.83;8.70;;;;;;;4.79;100.00;102931.28;834663;23;813;-51
2022/01/18 01:09:04;;;;;;;22.25;8.70;;;;;;;4.80;100.00;102929.56;837625;23;750;-51
2022/01/18 01:09:24;;;;;;;26.15;9.25;;;;;;;4.81;100.00;102928.78;837620;23;943;-51
2022/01/18 01:09:46;;;;;;;27.30;9.03;;;;;;;4.81;100.00;102927.06;837022;23;947;-51
2022/01/18 01:10:07;;;;;;;25.85;8.95;;;;;;;4.80;100.00;102922.69;837032;23;828;-52
2022/01/18 01:10:28;;;;;;;26.08;9.25;;;;;;;4.78;100.00;102927.78;830434;23;4262;-51
2022/01/18 01:10:48;;;;;;;28.10;9.07;;;;;;;4.80;100.00;102924.38;832143;23;836;-52
2022/01/18 01:11:10;;;;;;;27.53;8.70;;;;;;;4.79;100.00;102933.88;833770;23;899;-54
2022/01/18 01:11:36;;;;;;;23.58;8.65;;;;;;;4.80;100.00;102927.88;833131;23;907;-52
2022/01/18 01:11:56;;;;;;;22.63;8.52;;;;;;;4.80;100.00;102929.56;833194;23;1018;-53
2022/01/18 01:12:19;;;;;;;19.63;8.38;;;;;;;4.81;100.00;102928.78;834499;23;733;-54
2022/01/18 01:12:40;;;;;;;23.60;8.40;;;;;;;4.80;100.00;102933.03;836634;23;938;-51
2022/01/18 01:13:00;;;;;;;23.23;8.33;;;;;;;4.81;100.00;102926.19;835607;23;872;-53
2022/01/18 01:13:21;;;;;;;20.80;8.17;;;;;;;4.81;100.00;102931.38;835480;23;4388;-54
2022/01/18 01:13:46;;;;;;;20.30;8.32;;;;;;;4.80;100.00;102929.56;832003;23;840;-55
2022/01/18 01:14:13;;;;;;;23.27;8.40;;;;;;;4.80;100.00;102929.56;830808;23;931;-54
2022/01/18 01:14:34;;;;;;;29.58;8.52;;;;;;;4.78;100.00;102927.78;831664;23;726;-51
2022/01/18 01:15:02;;;;;;;27.02;8.48;;;;;;;4.79;100.00;102923.50;832936;23;947;-53
2022/01/18 01:15:25;;;;;;;21.70;8.52;;;;;;;4.80;100.00;102925.28;832576;23;923;-52
2022/01/18 01:16:53;;;;;;;23.98;8.18;;;;;;;4.82;100.00;102921.09;831553;23;1894;-53
2022/01/18 01:17:46;;;;;;;30.15;10.07;;;;;;;4.83;100.00;102920.28;828893;23;951;-51
2022/01/18 01:18:33;;;;;;;37.25;11.90;;;;;;;4.84;100.00;102931.53;828733;23;963;-54
2022/01/18 01:19:12;;;;;;;41.97;13.38;;;;;;;4.84;100.00;102928.94;834199;23;2039;-54
2022/01/18 01:32:27;;;;;;;26.52;9.45;;;;;;;4.73;100.00;102921.44;837478;23;932;-52
2022/01/18 01:36:26;;;;;;;20.85;8.20;;;;;;;4.72;100.00;102922.28;834634;23;1101;-53
2022/01/18 01:41:46;;;;;;;24.73;8.27;;;;;;;4.71;100.00;102922.19;837379;23;1939;-52
2022/01/18 01:42:34;;;;;;;27.23;9.10;;;;;;;4.74;100.00;102931.00;836829;23;931;-51
2022/01/18 01:43:13;;;;;;;29.00;9.25;;;;;;;4.73;100.00;102926.63;835367;23;1852;-51
2022/01/18 01:43:50;;;;;;;27.42;9.65;;;;;;;4.73;100.00;102929.22;833715;23;4789;-52
2022/01/18 01:44:42;;;;;;;26.83;9.27;;;;;;;4.73;100.00;102924.03;836355;23;914;-52
2022/01/18 01:45:04;;;;;;;30.08;9.15;;;;;;;4.72;100.00;102922.28;836107;23;844;-53
2022/01/18 01:45:27;;;;;;;26.25;8.68;;;;;;;4.72;100.00;102927.47;837081;23;927;-52
2022/01/18 01:45:49;;;;;;;20.02;8.25;;;;;;;4.73;100.00;102934.41;836927;23;824;-51
2022/01/18 01:46:10;;;;;;;25.50;8.75;;;;;;;4.72;100.00;102930.06;836289;23;4228;-52
2022/01/18 01:46:32;;;;;;;27.73;8.90;;;;;;;4.73;100.00;102925.75;832426;23;766;-51
2022/01/18 01:46:53;;;;;;;27.60;8.52;;;;;;;4.72;100.00;102930.06;832735;23;864;-51
2022/01/18 01:47:19;;;;;;;24.08;8.60;;;;;;;4.71;100.00;102928.25;833061;23;916;-51
2022/01/18 01:47:39;;;;;;;28.42;9.02;;;;;;;4.71;100.00;102929.97;831667;23;987;-51
2022/01/18 01:48:00;;;;;;;26.35;9.10;;;;;;;4.70;100.00;102931.66;831670;23;1068;-56
2022/01/18 01:48:25;;;;;;;27.92;9.40;;;;;;;4.70;100.00;102931.66;834447;23;861;-51
2022/01/18 01:48:52;;;;;;;28.48;9.32;;;;;;;4.69;100.00;102932.44;836391;23;863;-52
2022/01/18 01:49:14;;;;;;;31.88;9.77;;;;;;;4.69;100.00;102936.75;836001;23;4466;-52
2022/01/18 01:49:34;;;;;;;31.83;9.45;;;;;;;4.68;100.00;102933.28;836111;23;846;-51
2022/01/18 01:49:55;;;;;;;29.37;9.07;;;;;;;4.67;100.00;102931.47;837031;23;674;-54
2022/01/18 01:50:19;;;;;;;27.23;8.10;;;;;;;4.69;100.00;102939.34;836449;23;868;-52
2022/01/18 01:50:45;;;;;;;26.98;8.20;;;;;;;4.66;100.00;102934.00;837569;23;915;-51
2022/01/18 01:51:05;;;;;;;27.10;8.45;;;;;;;4.67;100.00;102934.06;836130;23;801;-51
2022/01/18 01:51:29;;;;;;;22.77;8.20;;;;;;;4.68;100.00;102943.63;835552;23;1279;-55
2022/01/18 01:51:50;;;;;;;21.65;7.93;;;;;;;4.68;100.00;102932.34;836261;23;1007;-53
2022/01/18 01:52:12;;;;;;;27.67;8.73;;;;;;;4.67;100.00;102944.44;833095;23;4252;-52
2022/01/18 01:52:32;;;;;;;28.17;8.98;;;;;;;4.67;100.00;102938.38;836180;23;911;-55
2022/01/18 01:52:55;;;;;;;24.77;9.07;;;;;;;4.67;100.00;102941.84;836805;23;725;-51
2022/01/18 01:53:19;;;;;;;19.48;7.93;;;;;;;4.68;100.00;102935.88;835910;23;969;-52
2022/01/18 01:53:39;;;;;;;19.63;7.68;;;;;;;4.68;100.00;102938.47;836381;23;939;-52
2022/01/18 01:54:05;;;;;;;23.08;8.40;;;;;;;4.69;100.00;102939.34;837724;23;899;-52
2022/01/18 01:54:26;;;;;;;25.92;8.65;;;;;;;4.69;100.00;102937.63;836632;23;737;-54
2022/01/18 01:54:46;;;;;;;26.63;9.23;;;;;;;4.69;100.00;102940.22;836523;23;891;-53
2022/01/18 01:55:08;;;;;;;24.52;8.70;;;;;;;4.70;100.00;102938.53;836739;23;900;-51
2022/01/18 01:55:28;;;;;;;27.77;9.15;;;;;;;4.70;100.00;102931.66;834130;23;4664;-54
2022/01/18 01:55:51;;;;;;;27.10;9.13;;;;;;;4.70;100.00;102934.22;837770;23;841;-55
2022/01/18 01:56:12;;;;;;;27.02;8.98;;;;;;;4.70;100.00;102936.81;832855;23;812;-54
2022/01/18 01:56:33;;;;;;;26.83;8.75;;;;;;;4.69;100.00;102937.63;830682;23;1292;-53
2022/01/18 01:56:53;;;;;;;27.55;9.00;;;;;;;4.69;100.00;102945.41;831930;23;1949;-51
2022/01/18 01:57:14;;;;;;;27.97;9.00;;;;;;;4.69;100.00;102942.81;832074;23;884;-55
2022/01/18 01:57:34;;;;;;;25.70;8.52;;;;;;;4.70;100.00;102936.81;826555;23;805;-53
2022/01/18 01:57:55;;;;;;;25.55;8.32;;;;;;;4.71;100.00;102940.34;832014;23;1172;-51
2022/01/18 01:58:18;;;;;;;21.00;8.10;;;;;;;4.71;100.00;102940.34;832272;23;4290;-51
2022/01/18 01:58:39;;;;;;;28.73;9.00;;;;;;;4.70;100.00;102939.41;836962;23;952;-52
2022/01/18 01:59:00;;;;;;;30.30;9.17;;;;;;;4.70;100.00;102946.31;837417;23;836;-52
2022/01/18 01:59:20;;;;;;;29.88;9.20;;;;;;;4.70;100.00;102943.72;836657;23;971;-51
2022/01/18 01:59:41;;;;;;;25.17;8.40;;;;;;;4.68;100.00;102946.22;837073;23;892;-51
2022/01/18 02:00:28;;;;;;;23.33;7.82;;;;;;;4.65;100.00;102945.16;836928;23;884;-54
2022/01/18 02:01:05;;;;;;;25.25;8.73;;;;;;;4.63;100.00;102946.78;833463;23;1846;-52
2022/01/18 02:01:27;;;;;;;25.30;8.82;;;;;;;4.64;100.00;102952.03;830578;23;4302;-52
2022/01/18 02:01:49;;;;;;;23.83;8.43;;;;;;;4.62;100.00;102951.06;832398;23;800;-52
2022/01/18 02:02:09;;;;;;;27.40;8.25;;;;;;;4.60;100.00;102948.38;833510;23;920;-52
2022/01/18 02:02:30;;;;;;;27.40;8.33;;;;;;;4.61;100.00;102949.28;832832;23;895;-52
2022/01/18 02:02:53;;;;;;;25.23;8.35;;;;;;;4.61;100.00;102949.28;831930;23;733;-51
2022/01/18 02:03:14;;;;;;;25.10;8.40;;;;;;;4.60;100.00;102943.19;834293;23;1025;-53
2022/01/18 02:03:35;;;;;;;25.80;8.82;;;;;;;4.60;100.00;102948.38;835872;23;899;-52
2022/01/18 02:03:57;;;;;;;16.92;8.00;;;;;;;4.61;100.00;102951.88;837476;23;935;-55
2022/01/18 02:04:18;;;;;;;21.83;7.60;;;;;;;4.60;100.00;102950.97;835542;23;4287;-52
2022/01/18 02:04:38;;;;;;;22.20;8.10;;;;;;;4.60;100.00;102950.97;835636;23;872;-54
2022/01/18 02:04:59;;;;;;;22.60;8.23;;;;;;;4.59;100.00;102949.19;836125;23;769;-56
2022/01/18 02:05:21;;;;;;;22.52;8.00;;;;;;;4.61;100.00;102946.69;836955;23;832;-55
2022/01/18 02:05:42;;;;;;;27.17;8.25;;;;;;;4.59;100.00;102945.69;830819;23;1355;-52
2022/01/18 02:06:03;;;;;;;29.77;8.07;;;;;;;4.59;100.00;102948.28;833046;23;864;-51
2022/01/18 02:06:24;;;;;;;24.58;8.35;;;;;;;4.58;100.00;102949.09;832927;23;1042;-51
2022/01/18 02:06:44;;;;;;;25.20;8.47;;;;;;;4.58;100.00;102949.09;832727;23;972;-52
2022/01/18 02:07:05;;;;;;;27.30;8.50;;;;;;;4.58;100.00;102949.09;831964;23;861;-55
2022/01/18 02:07:25;;;;;;;30.95;9.15;;;;;;;4.59;100.00;102950.88;831454;23;4290;-51
2022/01/18 02:07:46;;;;;;;26.92;8.68;;;;;;;4.59;100.00;102945.69;837023;23;801;-54
2022/01/18 02:08:07;;;;;;;26.77;8.40;;;;;;;4.59;100.00;102945.69;838041;23;788;-52
2022/01/18 02:08:28;;;;;;;26.33;7.90;;;;;;;4.60;100.00;102942.31;837085;23;955;-51
2022/01/18 02:08:49;;;;;;;25.02;8.35;;;;;;;4.60;100.00;102942.31;837623;23;741;-51
2022/01/18 02:09:10;;;;;;;20.33;7.60;;;;;;;4.61;100.00;102941.50;836877;23;1014;-53
2022/01/18 02:09:31;;;;;;;21.40;7.73;;;;;;;4.62;100.00;102945.88;836745;23;908;-52
2022/01/18 02:09:51;;;;;;;21.35;7.90;;;;;;;4.64;100.00;102940.78;836329;23;948;-51
2022/01/18 02:10:12;;;;;;;18.85;7.60;;;;;;;4.64;100.00;102941.69;834928;23;4496;-52
2022/01/18 02:10:34;;;;;;;21.10;7.77;;;;;;;4.64;100.00;102936.50;835271;23;1535;-52
2022/01/18 02:10:54;;;;;;;22.55;8.07;;;;;;;4.65;100.00;102935.66;836932;23;844;-53
2022/01/18 02:11:15;;;;;;;23.73;8.27;;;;;;;4.65;100.00;102940.84;835559;23;900;-55
2022/01/18 02:11:35;;;;;;;21.38;8.00;;;;;;;4.65;100.00;102940.84;836243;23;868;-53
2022/01/18 02:11:58;;;;;;;23.30;8.40;;;;;;;4.65;100.00;102939.97;835820;23;758;-56
2022/01/18 02:12:19;;;;;;;22.65;8.25;;;;;;;4.65;100.00;102938.25;836698;23;974;-52
2022/01/18 02:12:40;;;;;;;21.53;8.13;;;;;;;4.65;100.00;102938.25;837093;23;900;-55
2022/01/18 02:13:00;;;;;;;22.98;8.57;;;;;;;4.66;100.00;102939.16;837006;23;942;-52
2022/01/18 02:13:20;;;;;;;22.97;8.43;;;;;;;4.66;100.00;102942.66;834177;23;4301;-52
2022/01/18 02:13:41;;;;;;;24.20;8.43;;;;;;;4.65;100.00;102951.22;837391;23;943;-52
2022/01/18 02:14:04;;;;;;;25.63;8.60;;;;;;;4.65;100.00;102943.44;836356;23;740;-53
2022/01/18 02:14:25;;;;;;;28.23;8.63;;;;;;;4.65;100.00;102945.16;836219;23;895;-56
2022/01/18 02:14:52;;;;;;;26.15;8.05;;;;;;;4.65;100.00;102942.56;831540;23;943;-54
2022/01/18 02:15:18;;;;;;;24.17;8.40;;;;;;;4.64;100.00;102948.53;833370;23;980;-51
2022/01/18 02:15:44;;;;;;;23.02;8.05;;;;;;;4.63;100.00;102942.47;832094;23;765;-51
2022/01/18 02:21:50;;;;;;;19.00;7.80;;;;;;;4.58;100.00;102933.53;836085;23;820;-52
2022/01/18 02:22:11;;;;;;;19.02;8.23;;;;;;;4.58;100.00;102939.63;836508;23;4453;-51
2022/01/18 02:22:32;;;;;;;19.35;8.48;;;;;;;4.57;100.00;102932.66;837088;23;805;-51
2022/01/18 02:22:53;;;;;;;21.50;7.90;;;;;;;4.58;100.00;102939.63;836687;23;778;-51
2022/01/18 02:23:13;;;;;;;22.40;7.93;;;;;;;4.59;100.00;102937.94;836993;23;713;-55
2022/01/18 02:23:37;;;;;;;23.17;8.25;;;;;;;4.58;100.00;102933.53;836959;23;935;-51
2022/01/18 02:23:58;;;;;;;20.88;8.38;;;;;;;4.57;100.00;102937.84;836451;23;770;-53
2022/01/18 02:24:20;;;;;;;22.88;8.18;;;;;;;4.57;100.00;102932.66;835125;23;763;-54
2022/01/18 02:24:41;;;;;;;25.63;8.23;;;;;;;4.58;100.00;102938.72;837158;23;848;-52